Time;durP1;ratioP1;P1;durP2;ratioP2;P2;SDS_P1;SDS_P2;PMS_P1;PMS_P2;Temp;Humidity;BMP_temperature;BMP_pressure;BME280_temperature;BME280_humidity;BME280_pressure;Samples;Min_cycle;Max_cycle;Signal;HPM_P1;HPM_P2
2024/02/04 00:03:23;;;;;;;13.02;6.30;;;18.60;43.90;;;;;;8421054;28;20021;-49
2024/02/04 00:07:27;;;;;;;12.68;6.25;;;18.60;43.90;;;;;;8421200;28;20035;-48
2024/02/04 00:11:28;;;;;;;;;;;18.60;44.00;;;;;;8429731;28;20137;-49
2024/02/04 00:15:29;;;;;;;13.32;5.97;;;18.60;44.10;;;;;;8438084;28;19918;-48
2024/02/04 00:19:31;;;;;;;9.82;5.97;;;18.60;44.20;;;;;;8419054;28;20592;-48
2024/02/04 00:23:32;;;;;;;11.38;6.00;;;18.60;44.20;;;;;;8438040;28;20416;-49
2024/02/04 00:27:33;;;;;;;;;;;18.60;44.30;;;;;;8438533;28;20036;-49
2024/02/04 00:31:34;;;;;;;9.68;5.32;;;18.60;44.30;;;;;;8437921;28;19986;-49
2024/02/04 00:35:36;;;;;;;10.95;6.05;;;18.60;44.40;;;;;;8437890;28;20078;-48
2024/02/04 00:39:37;;;;;;;10.80;5.97;;;18.60;44.50;;;;;;8437026;28;20028;-48
2024/02/04 00:43:39;;;;;;;12.02;5.70;;;18.60;44.50;;;;;;8437114;28;20127;-50
2024/02/04 00:47:40;;;;;;;10.80;5.63;;;18.60;44.70;;;;;;8436858;28;20031;-49
2024/02/04 00:51:41;;;;;;;;;;;18.60;44.60;;;;;;8437758;28;20023;-49
2024/02/04 00:55:43;;;;;;;10.32;5.55;;;18.60;44.70;;;;;;8437302;28;19927;-51
2024/02/04 00:59:45;;;;;;;9.80;5.63;;;18.60;44.90;;;;;;8437808;28;20028;-49
2024/02/04 01:03:47;;;;;;;12.55;5.68;;;18.60;44.70;;;;;;8436789;28;20082;-49
2024/02/04 01:07:49;;;;;;;76.78;17.13;;;18.60;44.30;;;;;;8436577;28;20028;-49
2024/02/04 01:11:50;;;;;;;;;;;18.70;44.30;;;;;;8437805;28;20052;-48
2024/02/04 01:15:51;;;;;;;48.90;13.73;;;18.70;43.90;;;;;;8443097;28;19923;-53
2024/02/04 01:19:52;;;;;;;55.90;13.05;;;18.70;43.70;;;;;;8443297;28;20042;-49
2024/02/04 01:23:53;;;;;;;;;;;18.60;43.90;;;;;;8443879;28;20032;-50
2024/02/04 01:27:54;;;;;;;21.90;5.70;;;18.50;43.60;;;;;;8443042;28;19939;-53
2024/02/04 01:31:55;;;;;;;;;;;18.40;42.80;;;;;;8444029;28;20028;-53
2024/02/04 01:35:58;;;;;;;10.23;3.08;;;18.40;42.70;;;;;;8442664;28;19910;-53
2024/02/04 01:40:00;;;;;;;8.45;3.45;;;18.10;42.70;;;;;;8442455;28;20035;-50
2024/02/04 01:44:01;;;;;;;5.10;1.77;;;17.90;42.80;;;;;;8442514;28;20066;-48
2024/02/04 01:48:02;;;;;;;12.13;2.20;;;17.90;42.10;;;;;;8442805;28;20020;-50
2024/02/04 01:52:03;;;;;;;;;;;18.00;41.90;;;;;;8443283;28;20032;-45
2024/02/04 01:56:06;;;;;;;7.65;2.00;;;18.20;41.70;;;;;;8442053;28;19973;-48
2024/02/04 02:00:09;;;;;;;6.32;2.67;;;18.30;41.50;;;;;;8442476;28;20025;-53
2024/02/04 02:04:10;;;;;;;3.58;2.03;;;18.40;41.40;;;;;;8424231;28;20038;-49
2024/02/04 02:08:11;;;;;;;7.03;2.47;;;18.50;41.40;;;;;;8442696;28;20035;-50
2024/02/04 02:12:22;;;;;;;3.58;1.73;;;18.50;41.30;;;;;;8441767;28;20309;-53
2024/02/04 02:16:24;;;;;;;4.78;1.90;;;18.60;41.30;;;;;;8442230;28;20362;-49
2024/02/04 02:20:40;;;;;;;4.32;1.65;;;18.60;41.40;;;;;;8441387;28;20051;-48
2024/02/04 02:24:42;;;;;;;4.15;1.83;;;18.60;41.60;;;;;;8440976;28;20085;-54
2024/02/04 02:28:43;;;;;;;9.75;2.53;;;18.40;42.70;;;;;;8440656;28;20043;-49
2024/02/04 02:32:45;;;;;;;6.97;2.20;;;18.30;42.90;;;;;;8424040;28;20043;-51
2024/02/04 02:36:54;;;;;;;4.63;1.80;;;18.40;42.70;;;;;;8441145;28;20634;-50
2024/02/04 02:40:59;;;;;;;4.57;1.83;;;18.50;42.60;;;;;;8440505;28;20071;-49
2024/02/04 02:45:01;;;;;;;5.88;2.45;;;18.50;42.40;;;;;;8441134;28;20089;-51
2024/02/04 02:49:02;;;;;;;4.20;1.55;;;18.50;42.20;;;;;;8440302;28;20039;-49
2024/02/04 02:53:03;;;;;;;3.78;1.52;;;18.60;42.10;;;;;;8440403;28;20032;-49
2024/02/04 02:57:04;;;;;;;6.47;2.10;;;18.60;42.00;;;;;;8440068;28;20042;-51
2024/02/04 03:01:05;;;;;;;4.25;1.45;;;18.60;42.40;;;;;;8458801;28;20036;-47
2024/02/04 03:05:05;;;;;;;2.95;1.73;;;18.50;42.30;;;;;;8444899;28;20027;-47
2024/02/04 03:09:06;;;;;;;5.10;1.50;;;18.60;42.10;;;;;;8462772;28;20059;-48
2024/02/04 03:13:07;;;;;;;3.13;1.30;;;18.60;42.50;;;;;;8462469;28;20059;-48
2024/02/04 03:17:07;;;;;;;4.13;1.83;;;18.40;43.30;;;;;;8462380;28;20039;-49
2024/02/04 03:21:15;;;;;;;4.18;1.75;;;18.30;43.40;;;;;;8462267;28;20297;-48
2024/02/04 03:25:16;;;;;;;4.07;1.40;;;18.40;43.60;;;;;;8462172;28;20034;-49
2024/02/04 03:29:16;;;;;;;4.83;1.40;;;18.50;42.80;;;;;;8401229;28;20060;-49
2024/02/04 03:33:17;;;;;;;4.03;1.40;;;18.50;42.60;;;;;;8394517;28;20032;-48
2024/02/04 03:37:18;;;;;;;4.25;1.98;;;18.50;42.50;;;;;;8394002;28;20078;-50
2024/02/04 03:41:18;;;;;;;3.47;1.58;;;18.60;42.40;;;;;;8395385;28;20024;-47
2024/02/04 03:45:19;;;;;;;3.53;1.30;;;18.60;42.30;;;;;;8394112;28;20028;-49
2024/02/04 03:49:20;;;;;;;8.23;1.20;;;18.60;42.40;;;;;;8394174;28;20307;-48
2024/02/04 03:53:23;;;;;;;3.47;1.33;;;18.60;42.20;;;;;;8394107;28;20029;-49
2024/02/04 03:57:23;;;;;;;5.13;1.48;;;18.60;42.20;;;;;;8390696;28;20039;-48
2024/02/04 04:01:24;;;;;;;5.57;1.50;;;18.60;42.80;;;;;;8427283;28;20115;-50
2024/02/04 04:05:26;;;;;;;6.18;1.40;;;18.40;43.50;;;;;;8427342;28;20282;-50
2024/02/04 04:09:26;;;;;;;5.93;1.23;;;18.40;43.50;;;;;;8393360;28;20036;-54
2024/02/04 04:13:27;;;;;;;5.00;1.70;;;18.40;43.60;;;;;;8393258;28;20079;-55
2024/02/04 04:17:28;;;;;;;7.97;1.60;;;18.40;43.20;;;;;;8393502;28;20466;-53
2024/02/04 04:21:28;;;;;;;5.23;1.43;;;18.50;42.70;;;;;;8393011;28;20795;-51
2024/02/04 04:25:29;;;;;;;3.50;1.30;;;18.60;42.40;;;;;;8393317;28;20320;-54
2024/02/04 04:29:30;;;;;;;2.93;1.37;;;18.60;42.60;;;;;;8425571;28;20755;-54
2024/02/04 04:33:30;;;;;;;3.27;1.27;;;18.60;41.90;;;;;;8426388;28;20286;-53
2024/02/04 04:37:31;;;;;;;3.35;1.38;;;18.70;41.70;;;;;;8426290;28;20281;-53
2024/02/04 04:41:32;;;;;;;4.15;1.73;;;18.70;41.60;;;;;;8426141;28;20474;-52
2024/02/04 04:45:32;;;;;;;5.55;1.60;;;18.70;41.60;;;;;;8426386;28;20025;-53
2024/02/04 04:49:33;;;;;;;2.47;1.40;;;18.60;42.30;;;;;;8425292;28;20042;-53
2024/02/04 04:53:34;;;;;;;3.67;1.67;;;18.50;43.00;;;;;;8427025;28;20274;-52
2024/02/04 04:57:34;;;;;;;3.33;1.23;;;18.40;43.00;;;;;;8425935;28;20289;-52
2024/02/04 05:01:35;;;;;;;5.30;1.60;;;18.50;42.50;;;;;;8425819;28;20286;-51
2024/02/04 05:05:36;;;;;;;2.58;1.40;;;18.50;42.30;;;;;;8425743;28;20301;-51
2024/02/04 05:09:36;;;;;;;5.10;2.28;;;18.60;42.00;;;;;;8425742;28;20036;-52
2024/02/04 05:13:39;;;;;;;2.88;1.30;;;18.60;41.90;;;;;;8425976;28;20090;-53
2024/02/04 05:17:40;;;;;;;4.53;1.35;;;18.60;41.70;;;;;;8425563;28;20036;-54
2024/02/04 05:21:41;;;;;;;2.87;1.20;;;18.60;41.50;;;;;;8426508;28;20032;-54
2024/02/04 05:25:41;;;;;;;3.80;1.80;;;18.60;41.40;;;;;;8425755;28;20327;-53
2024/02/04 05:29:42;;;;;;;2.73;1.50;;;18.60;41.30;;;;;;8425525;28;20642;-52
2024/02/04 05:33:43;;;;;;;4.63;1.50;;;18.70;41.30;;;;;;8425611;28;20282;-51
2024/02/04 05:37:43;;;;;;;2.83;1.17;;;18.60;42.00;;;;;;8425569;28;20060;-52
2024/02/04 05:41:44;;;;;;;3.17;1.60;;;18.50;43.00;;;;;;8425176;28;20551;-51
2024/02/04 05:45:45;;;;;;;3.90;1.67;;;18.40;42.70;;;;;;8407182;28;20278;-52
2024/02/04 05:49:45;;;;;;;3.38;1.73;;;18.50;42.30;;;;;;8425625;28;20024;-51
2024/02/04 05:53:47;;;;;;;3.83;1.50;;;18.50;42.00;;;;;;8425270;28;20111;-50
2024/02/04 05:57:48;;;;;;;2.17;1.10;;;18.50;41.80;;;;;;8424992;28;20540;-51
2024/02/04 06:01:48;;;;;;;3.00;1.33;;;18.60;41.60;;;;;;8429553;28;20393;-53
2024/02/04 06:05:49;;;;;;;1.77;1.00;;;18.60;41.50;;;;;;8412915;28;20285;-51
2024/02/04 06:09:50;;;;;;;2.83;1.47;;;18.60;41.40;;;;;;8412686;28;20289;-50
2024/02/04 06:13:50;;;;;;;3.28;1.50;;;18.60;41.30;;;;;;8430910;28;20305;-51
2024/02/04 06:17:51;;;;;;;3.42;1.00;;;18.70;41.70;;;;;;8430616;28;20028;-50
2024/02/04 06:21:52;;;;;;;4.57;1.50;;;18.70;41.00;;;;;;8430463;28;20039;-52
2024/02/04 06:25:52;;;;;;;4.07;1.40;;;18.70;42.00;;;;;;8430461;28;20390;-50
2024/02/04 06:29:53;;;;;;;2.80;1.50;;;18.60;42.50;;;;;;8430157;28;20052;-49
2024/02/04 06:33:54;;;;;;;3.73;1.43;;;18.60;42.20;;;;;;8430080;28;20441;-49
2024/02/04 06:37:55;;;;;;;1.75;1.10;;;18.70;41.80;;;;;;8430062;28;20290;-51
2024/02/04 06:41:55;;;;;;;1.70;1.20;;;18.70;41.50;;;;;;8429630;28;20040;-53
2024/02/04 06:45:56;;;;;;;3.88;1.35;;;18.80;41.20;;;;;;8429739;28;20482;-52
2024/02/04 06:49:57;;;;;;;3.10;1.25;;;18.80;41.10;;;;;;8429721;28;20516;-53
2024/02/04 06:53:57;;;;;;;4.97;1.60;;;18.80;40.90;;;;;;8429499;28;20115;-54
2024/02/04 06:57:58;;;;;;;1.88;1.20;;;18.90;40.80;;;;;;8429366;28;20068;-53
2024/02/04 07:01:59;;;;;;;3.08;1.65;;;18.90;40.70;;;;;;8428987;28;20534;-53
2024/02/04 07:06:00;;;;;;;3.00;1.42;;;18.90;40.60;;;;;;8429079;28;20028;-54
2024/02/04 07:10:00;;;;;;;;;;;18.90;40.50;;;;;;8429777;28;20051;-53
2024/02/04 07:14:01;;;;;;;1.87;1.17;;;18.90;41.50;;;;;;8409984;28;19908;-52
2024/02/04 07:18:02;;;;;;;2.22;1.35;;;18.80;42.10;;;;;;8428790;28;20034;-52
2024/02/04 07:22:03;;;;;;;3.42;1.30;;;18.80;41.80;;;;;;8428741;28;20064;-53
2024/02/04 07:26:04;;;;;;;2.78;1.30;;;18.80;41.50;;;;;;8428463;28;20057;-53
2024/02/04 07:30:05;;;;;;;2.05;1.23;;;18.80;41.20;;;;;;8428438;28;20025;-52
2024/02/04 07:34:06;;;;;;;2.40;1.20;;;18.80;41.00;;;;;;8428707;28;20058;-54
2024/02/04 07:38:07;;;;;;;2.55;1.25;;;18.90;40.80;;;;;;8428086;28;20040;-53
2024/02/04 07:42:08;;;;;;;1.83;0.90;;;18.90;40.70;;;;;;8427921;28;20547;-52
2024/02/04 07:46:08;;;;;;;2.28;1.52;;;18.90;40.60;;;;;;8409579;28;20443;-53
2024/02/04 07:50:09;;;;;;;2.67;1.30;;;19.00;40.50;;;;;;8427787;28;20549;-53
2024/02/04 07:54:11;;;;;;;2.40;1.00;;;19.00;40.40;;;;;;8428129;28;20405;-54
2024/02/04 07:58:11;;;;;;;3.38;1.27;;;19.00;40.30;;;;;;8427489;28;20040;-54
2024/02/04 08:02:12;;;;;;;1.65;1.23;;;18.90;41.50;;;;;;8427280;28;20115;-53
2024/02/04 08:06:13;;;;;;;1.98;1.00;;;18.80;42.00;;;;;;8409013;28;20096;-54
2024/02/04 08:10:15;;;;;;;2.20;1.23;;;18.80;41.70;;;;;;8427281;28;20147;-52
2024/02/04 08:14:17;;;;;;;2.13;0.90;;;18.80;41.30;;;;;;8427142;28;20039;-53
2024/02/04 08:18:17;;;;;;;2.00;1.20;;;18.80;41.00;;;;;;8426916;28;20089;-54
2024/02/04 08:22:19;;;;;;;3.15;1.13;;;18.90;40.80;;;;;;8426564;28;20028;-53
2024/02/04 08:26:19;;;;;;;3.03;1.25;;;18.90;40.70;;;;;;8426782;28;20059;-55
2024/02/04 08:30:20;;;;;;;2.33;0.90;;;18.90;40.50;;;;;;8426594;28;20032;-54
2024/02/04 08:34:24;;;;;;;2.08;0.82;;;18.90;40.40;;;;;;8426505;28;20670;-53
2024/02/04 08:38:24;;;;;;;2.45;1.20;;;19.00;40.40;;;;;;8426673;28;20032;-54
2024/02/04 08:42:25;;;;;;;1.73;0.98;;;19.00;40.90;;;;;;8426226;28;20054;-54
2024/02/04 08:46:26;;;;;;;2.00;1.03;;;19.00;40.30;;;;;;8426204;28;20056;-53
2024/02/04 08:50:26;;;;;;;1.65;1.15;;;18.90;41.40;;;;;;8426303;28;20276;-53
2024/02/04 08:54:27;;;;;;;1.80;1.02;;;18.80;41.80;;;;;;8426357;28;20032;-54
2024/02/04 08:58:27;;;;;;;1.47;0.90;;;18.80;41.50;;;;;;8425879;28;20032;-53
2024/02/04 09:02:28;;;;;;;1.60;0.90;;;18.80;41.30;;;;;;8426159;28;20647;-49
2024/02/04 09:06:29;;;;;;;1.75;0.88;;;18.90;40.90;;;;;;8425850;28;20274;-50
2024/02/04 09:10:30;;;;;;;1.60;0.90;;;18.90;40.70;;;;;;8426012;28;20136;-50
2024/02/04 09:14:30;;;;;;;1.73;1.13;;;18.90;40.50;;;;;;8425971;28;20028;-52
2024/02/04 09:18:31;;;;;;;1.35;0.80;;;19.00;40.40;;;;;;8425707;28;20111;-51
2024/02/04 09:22:32;;;;;;;2.22;0.80;;;19.00;40.30;;;;;;8425709;28;20103;-53
2024/02/04 09:26:32;;;;;;;1.13;1.00;;;19.00;40.20;;;;;;8425673;28;20036;-51
2024/02/04 09:30:33;;;;;;;2.22;1.00;;;19.00;40.10;;;;;;8425522;28;20035;-50
2024/02/04 09:34:34;;;;;;;0.85;0.70;;;19.00;40.20;;;;;;8426477;28;20031;-51
2024/02/04 09:38:34;;;;;;;1.80;0.80;;;18.90;41.30;;;;;;8431832;28;20495;-53
2024/02/04 09:42:35;;;;;;;0.93;0.63;;;18.80;41.60;;;;;;8431727;28;20036;-50
2024/02/04 09:46:36;;;;;;;2.70;1.20;;;18.80;41.30;;;;;;8431393;28;20107;-51
2024/02/04 09:50:36;;;;;;;1.00;0.77;;;18.90;41.00;;;;;;8413442;28;20501;-50
2024/02/04 09:54:50;;;;;;;1.92;0.90;;;18.90;40.80;;;;;;8431470;28;20039;-52
2024/02/04 09:58:52;;;;;;;2.45;1.08;;;18.90;40.50;;;;;;8431023;28;20028;-51
2024/02/04 10:02:55;;;;;;;1.17;0.80;;;19.00;41.00;;;;;;8431008;28;20032;-50
2024/02/04 10:06:56;;;;;;;2.20;0.80;;;19.00;40.40;;;;;;8430998;28;20127;-52
2024/02/04 10:10:57;;;;;;;1.67;0.90;;;19.00;40.20;;;;;;8430620;28;20044;-51
2024/02/04 10:14:59;;;;;;;1.45;0.88;;;19.00;40.10;;;;;;8431215;28;20120;-52
2024/02/04 10:19:01;;;;;;;1.30;0.70;;;19.00;40.00;;;;;;8430469;28;20043;-51
2024/02/04 10:23:01;;;;;;;1.23;0.75;;;19.00;40.30;;;;;;8430361;28;20033;-50
2024/02/04 10:27:03;;;;;;;1.30;0.80;;;18.90;41.30;;;;;;8430741;28;20066;-52
2024/02/04 10:31:04;;;;;;;1.30;0.80;;;18.80;41.50;;;;;;8430239;28;20032;-52
2024/02/04 10:35:05;;;;;;;0.70;0.50;;;18.80;41.20;;;;;;8429956;28;20043;-50
2024/02/04 10:39:06;;;;;;;1.20;0.85;;;18.90;40.90;;;;;;8430207;28;20390;-51
2024/02/04 10:43:09;;;;;;;1.08;0.70;;;18.90;40.60;;;;;;8429766;28;20675;-51
2024/02/04 10:47:13;;;;;;;1.60;0.70;;;18.90;40.40;;;;;;8428815;28;20048;-51
2024/02/04 10:51:15;;;;;;;1.20;0.80;;;18.90;40.30;;;;;;8429911;28;20039;-51
2024/02/04 10:55:21;;;;;;;1.55;0.98;;;18.90;40.20;;;;;;8429337;28;20032;-51
2024/02/04 10:59:22;;;;;;;1.40;1.08;;;19.00;40.20;;;;;;8429196;28;20392;-50
2024/02/04 11:03:27;;;;;;;1.73;1.00;;;19.00;40.00;;;;;;8410871;28;20036;-50
2024/02/04 11:07:34;;;;;;;1.83;0.90;;;19.00;40.00;;;;;;8428849;28;20067;-51
2024/02/04 11:11:36;;;;;;;1.02;0.60;;;18.90;40.50;;;;;;8410678;28;20694;-51
2024/02/04 11:15:44;;;;;;;0.75;0.68;;;18.80;41.40;;;;;;8428749;28;20439;-50
2024/02/04 11:20:30;;;;;;;1.25;0.68;;;18.80;41.40;;;;;;8428859;28;20445;-50
2024/02/04 11:24:37;;;;;;;1.38;0.70;;;18.80;41.00;;;;;;8304940;28;20281;-53
2024/02/04 11:28:39;;;;;;;1.33;0.75;;;18.80;40.70;;;;;;8428120;28;20051;-54
2024/02/04 11:32:40;;;;;;;0.98;0.60;;;18.90;40.40;;;;;;8428339;28;20028;-53
2024/02/04 11:36:41;;;;;;;1.17;0.70;;;18.90;40.30;;;;;;8428107;28;20032;-51
2024/02/04 11:40:42;;;;;;;1.08;0.68;;;18.90;40.20;;;;;;8427864;28;20036;-53
2024/02/04 11:44:43;;;;;;;;;;;18.90;40.10;;;;;;8428895;28;20107;-53
2024/02/04 11:48:53;;;;;;;1.00;0.60;;;18.90;40.00;;;;;;8427923;28;19904;-54
2024/02/04 11:53:10;;;;;;;0.70;0.50;;;18.90;39.90;;;;;;8427490;28;20097;-53
2024/02/04 11:57:11;;;;;;;1.02;0.82;;;19.00;39.90;;;;;;8408962;28;20040;-53
2024/02/04 12:01:12;;;;;;;1.25;0.95;;;18.80;41.00;;;;;;8427332;28;20085;-53
2024/02/04 12:05:13;;;;;;;0.80;0.80;;;18.70;41.60;;;;;;8427621;28;20520;-51
2024/02/04 12:09:18;;;;;;;;;;;18.70;41.30;;;;;;8427656;28;20402;-53
2024/02/04 12:13:20;;;;;;;0.80;0.50;;;18.70;41.00;;;;;;8426695;28;19928;-53
2024/02/04 12:17:21;;;;;;;0.85;0.52;;;18.80;40.60;;;;;;8426856;28;20047;-53
2024/02/04 12:21:22;;;;;;;0.43;0.40;;;18.80;40.40;;;;;;8426881;28;20032;-53
2024/02/04 12:25:26;;;;;;;1.40;0.50;;;18.90;40.30;;;;;;8426637;28;20043;-52
2024/02/04 12:29:27;;;;;;;0.75;0.68;;;18.90;40.20;;;;;;8427050;28;20082;-52
2024/02/04 12:33:28;;;;;;;1.05;0.63;;;18.90;40.10;;;;;;8426566;28;20029;-50
2024/02/04 12:37:30;;;;;;;1.00;0.52;;;18.90;40.00;;;;;;8426454;28;20073;-50
2024/02/04 12:41:30;;;;;;;0.77;0.50;;;18.90;39.80;;;;;;8408710;28;20119;-50
2024/02/04 12:45:31;;;;;;;0.65;0.55;;;18.90;39.80;;;;;;8426562;28;20036;-50
2024/02/04 12:49:33;;;;;;;0.95;0.60;;;18.80;41.00;;;;;;8426247;28;20024;-50
2024/02/04 12:53:34;;;;;;;0.65;0.60;;;18.70;41.50;;;;;;8426456;28;20032;-52
2024/02/04 12:57:34;;;;;;;0.63;0.60;;;18.70;41.20;;;;;;8426338;28;20032;-51
2024/02/04 13:01:36;;;;;;;0.93;0.50;;;18.70;40.80;;;;;;8426239;28;20033;-49
2024/02/04 13:05:37;;;;;;;0.88;0.63;;;18.80;40.50;;;;;;8425944;28;20536;-52
2024/02/04 13:09:39;;;;;;;0.50;0.45;;;18.80;40.30;;;;;;8427179;28;20465;-50
2024/02/04 13:13:40;;;;;;;1.27;0.70;;;18.90;40.20;;;;;;8433143;28;20054;-53
2024/02/04 13:17:40;;;;;;;1.80;0.77;;;18.90;40.00;;;;;;8432840;28;20036;-50
2024/02/04 13:21:41;;;;;;;0.45;0.43;;;18.90;40.00;;;;;;8432580;28;20032;-51
2024/02/04 13:25:42;;;;;;;0.90;0.70;;;18.90;39.80;;;;;;8432905;28;20035;-51
2024/02/04 13:29:43;;;;;;;1.50;0.50;;;18.90;39.70;;;;;;8433010;28;20032;-50
2024/02/04 13:33:43;;;;;;;1.23;0.75;;;18.90;39.80;;;;;;8432124;28;20414;-53
2024/02/04 13:37:51;;;;;;;0.70;0.60;;;18.80;41.00;;;;;;8432179;28;20056;-52
2024/02/04 13:41:52;;;;;;;0.95;0.50;;;18.70;41.40;;;;;;8431742;28;20504;-49
2024/02/04 13:45:53;;;;;;;0.65;0.65;;;18.70;41.00;;;;;;8432015;28;20366;-53
2024/02/04 13:49:55;;;;;;;0.50;0.45;;;18.80;40.70;;;;;;8431786;28;20054;-54
2024/02/04 13:53:56;;;;;;;0.90;0.40;;;18.80;40.40;;;;;;8431424;28;20111;-53
2024/02/04 13:57:56;;;;;;;0.93;0.77;;;18.90;40.30;;;;;;8431255;28;20036;-55
2024/02/04 14:01:57;;;;;;;0.63;0.43;;;18.90;40.10;;;;;;8412926;28;20833;-55
2024/02/04 14:05:58;;;;;;;0.80;0.50;;;18.90;39.90;;;;;;8431003;28;20036;-52
2024/02/04 14:09:58;;;;;;;0.77;0.68;;;18.90;39.80;;;;;;8431022;28;20524;-54
2024/02/04 14:13:59;;;;;;;0.80;0.60;;;18.90;39.70;;;;;;8430806;28;20036;-55
2024/02/04 14:18:00;;;;;;;0.73;0.50;;;18.90;39.60;;;;;;8430912;28;20501;-55
2024/02/04 14:22:01;;;;;;;0.70;0.70;;;18.90;39.90;;;;;;8430239;28;20290;-53
2024/02/04 14:26:02;;;;;;;0.80;0.50;;;18.80;41.00;;;;;;8430443;28;20089;-54
2024/02/04 14:30:04;;;;;;;0.73;0.50;;;18.70;41.20;;;;;;8431178;28;20093;-54
2024/02/04 14:34:04;;;;;;;0.70;0.60;;;18.70;40.80;;;;;;8430184;28;20081;-55
2024/02/04 14:38:05;;;;;;;0.73;0.52;;;18.80;40.50;;;;;;8430511;28;20085;-54
2024/02/04 14:42:06;;;;;;;0.70;0.40;;;18.80;40.80;;;;;;8430074;28;20436;-54
2024/02/04 14:46:07;;;;;;;0.50;0.40;;;18.80;40.00;;;;;;8430172;28;20029;-53
2024/02/04 14:50:09;;;;;;;0.30;0.30;;;18.90;40.00;;;;;;8430045;28;20058;-54
2024/02/04 14:54:09;;;;;;;0.75;0.40;;;18.90;39.80;;;;;;8430633;28;20039;-50
2024/02/04 14:58:10;;;;;;;0.60;0.50;;;18.90;39.70;;;;;;8429374;28;20040;-51
2024/02/04 15:02:11;;;;;;;0.40;0.40;;;18.90;39.70;;;;;;8429618;28;20040;-51
2024/02/04 15:06:12;;;;;;;0.73;0.50;;;18.90;39.60;;;;;;8429555;28;20032;-51
2024/02/04 15:10:12;;;;;;;0.60;0.40;;;18.90;40.00;;;;;;8430312;28;20505;-50
2024/02/04 15:14:13;;;;;;;0.52;0.40;;;18.80;41.00;;;;;;8429616;28;20028;-50
2024/02/04 15:18:14;;;;;;;0.50;0.50;;;18.70;41.10;;;;;;8429023;28;20028;-52
2024/02/04 15:22:15;;;;;;;0.40;0.40;;;18.70;40.70;;;;;;8428966;28;20492;-51
2024/02/04 15:26:16;;;;;;;0.35;0.35;;;18.70;40.40;;;;;;8428655;28;20496;-52
2024/02/04 15:30:18;;;;;;;0.50;0.40;;;18.80;40.20;;;;;;8410633;28;20370;-49
2024/02/04 15:34:19;;;;;;;0.50;0.50;;;18.90;40.00;;;;;;8428567;28;20102;-52
2024/02/04 15:38:20;;;;;;;0.60;0.40;;;18.90;39.90;;;;;;8428485;28;20032;-50
2024/02/04 15:42:20;;;;;;;1.08;0.47;;;18.90;39.70;;;;;;8427964;28;20066;-51
2024/02/04 15:46:23;;;;;;;0.40;0.40;;;18.90;39.70;;;;;;8428101;28;20482;-51
2024/02/04 15:50:25;;;;;;;0.50;0.50;;;18.90;39.60;;;;;;8428125;28;20755;-51
2024/02/04 15:54:27;;;;;;;1.33;0.60;;;18.90;39.60;;;;;;8427959;28;20405;-50
2024/02/04 15:58:30;;;;;;;0.77;0.45;;;18.90;40.20;;;;;;8427586;28;20153;-51
2024/02/04 16:02:31;;;;;;;0.40;0.40;;;18.70;41.00;;;;;;8427439;28;20040;-51
2024/02/04 16:06:32;;;;;;;0.43;0.43;;;18.70;41.20;;;;;;8427666;28;20024;-53
2024/02/04 16:10:33;;;;;;;;;;;18.70;40.70;;;;;;8427726;28;20139;-54
2024/02/04 16:14:42;;;;;;;0.63;0.50;;;18.80;40.40;;;;;;8427489;28;19908;-54
2024/02/04 16:18:43;;;;;;;0.60;0.30;;;18.80;40.20;;;;;;8427295;28;20616;-54
2024/02/04 16:22:43;;;;;;;0.52;0.50;;;18.80;40.00;;;;;;8426880;28;20063;-53
2024/02/04 16:26:44;;;;;;;0.50;0.50;;;18.90;39.90;;;;;;8428214;28;20020;-53
2024/02/04 16:30:45;;;;;;;0.47;0.45;;;18.90;39.70;;;;;;8426860;28;20115;-53
2024/02/04 16:34:46;;;;;;;0.40;0.40;;;18.90;39.60;;;;;;8426876;28;20040;-53
2024/02/04 16:38:46;;;;;;;0.30;0.30;;;18.90;39.50;;;;;;8426859;28;20288;-51
2024/02/04 16:42:47;;;;;;;0.40;0.40;;;19.00;39.40;;;;;;8426384;28;20469;-52
2024/02/04 16:46:48;;;;;;;0.35;0.35;;;18.90;40.30;;;;;;8426477;28;20389;-54
2024/02/04 16:50:50;;;;;;;0.50;0.50;;;18.80;40.90;;;;;;8426514;28;20561;-53
2024/02/04 16:54:50;;;;;;;0.43;0.40;;;18.70;40.90;;;;;;8426594;28;20166;-53
2024/02/04 16:58:51;;;;;;;1.20;0.60;;;18.70;40.60;;;;;;8426182;28;20024;-53
2024/02/04 17:02:52;;;;;;;0.50;0.40;;;18.80;40.30;;;;;;8426260;28;20036;-49
2024/02/04 17:06:53;;;;;;;0.45;0.30;;;18.80;40.00;;;;;;8426361;28;20126;-54
2024/02/04 17:10:55;;;;;;;0.43;0.43;;;18.90;39.80;;;;;;8425954;28;20048;-51
2024/02/04 17:14:56;;;;;;;0.40;0.40;;;18.90;39.60;;;;;;8426139;28;20051;-54
2024/02/04 17:19:09;;;;;;;0.40;0.40;;;18.90;39.50;;;;;;8426174;28;20028;-53
2024/02/04 17:23:13;;;;;;;0.30;0.30;;;18.90;39.50;;;;;;8425909;28;20036;-54
2024/02/04 17:27:15;;;;;;;0.70;0.50;;;18.90;39.90;;;;;;8425839;28;20460;-54
2024/02/04 17:31:16;;;;;;;0.45;0.38;;;19.00;39.40;;;;;;8426294;28;20028;-54
2024/02/04 17:35:20;;;;;;;0.80;0.43;;;18.80;40.40;;;;;;8425915;28;20504;-54
2024/02/04 17:39:20;;;;;;;0.35;0.30;;;18.70;41.00;;;;;;8425731;28;20175;-54
2024/02/04 17:43:22;;;;;;;0.50;0.50;;;18.70;40.80;;;;;;8425568;28;20039;-54
2024/02/04 17:47:24;;;;;;;0.30;0.30;;;18.80;40.60;;;;;;8425549;28;20066;-54
2024/02/04 17:51:25;;;;;;;0.40;0.40;;;18.80;40.10;;;;;;8425689;28;20043;-53
2024/02/04 17:55:26;;;;;;;0.57;0.40;;;18.80;39.90;;;;;;8408319;28;20064;-54
2024/02/04 17:59:26;;;;;;;0.40;0.35;;;18.90;39.70;;;;;;8431628;28;20609;-53
2024/02/04 18:03:27;;;;;;;0.33;0.33;;;18.90;39.60;;;;;;8431511;28;20040;-54
2024/02/04 18:07:28;;;;;;;0.60;0.47;;;18.90;39.40;;;;;;8431354;28;20267;-55
2024/02/04 18:11:28;;;;;;;0.80;0.50;;;18.90;39.30;;;;;;8426622;28;20052;-54
2024/02/04 18:15:29;;;;;;;1.27;0.73;;;18.90;39.60;;;;;;8399463;28;20037;-53
2024/02/04 18:19:34;;;;;;;1.02;0.80;;;18.80;40.10;;;;;;8404668;28;20059;-56
2024/02/04 18:23:35;;;;;;;1.10;0.90;;;18.80;41.40;;;;;;8427358;28;20544;-52
2024/02/04 18:27:36;;;;;;;1.63;0.70;;;18.80;42.00;;;;;;8427008;28;20435;-53
2024/02/04 18:31:37;;;;;;;1.13;0.80;;;18.90;41.50;;;;;;8426815;28;20663;-53
2024/02/04 18:35:39;;;;;;;1.63;0.70;;;18.90;41.20;;;;;;8426372;28;20043;-50
2024/02/04 18:39:40;;;;;;;1.83;1.00;;;19.10;40.80;;;;;;8426788;28;20040;-58
2024/02/04 18:43:42;;;;;;;0.90;0.75;;;19.10;40.50;;;;;;8426183;28;20553;-54
2024/02/04 18:47:42;;;;;;;1.38;0.95;;;19.10;40.20;;;;;;8426086;28;20036;-52
2024/02/04 18:51:43;;;;;;;1.33;1.08;;;19.20;40.00;;;;;;8426272;28;20028;-54
2024/02/04 18:55:44;;;;;;;7.20;2.20;;;19.10;39.70;;;;;;8426290;28;20039;-54
2024/02/04 18:59:44;;;;;;;4.18;2.40;;;19.00;39.50;;;;;;8426021;28;20028;-53
2024/02/04 19:03:47;;;;;;;6.45;3.00;;;19.00;39.50;;;;;;8425628;28;20036;-52
2024/02/04 19:07:50;;;;;;;3.20;2.47;;;19.00;38.80;;;;;;8425139;28;20115;-52
2024/02/04 19:11:51;;;;;;;5.45;2.97;;;18.80;39.70;;;;;;8425368;28;20466;-54
2024/02/04 19:15:52;;;;;;;8.85;2.63;;;18.60;40.10;;;;;;8424891;28;20378;-54
2024/02/04 19:19:52;;;;;;;8.50;3.40;;;18.60;39.60;;;;;;8425295;28;20107;-54
2024/02/04 19:23:53;;;;;;;7.95;3.65;;;18.60;39.40;;;;;;8415319;28;20520;-53
2024/02/04 19:27:58;;;;;;;6.93;3.40;;;18.80;39.30;;;;;;8425020;28;20024;-52
2024/02/04 19:31:58;;;;;;;9.60;3.45;;;19.00;39.70;;;;;;8414999;28;20309;-53
2024/02/04 19:35:59;;;;;;;7.05;2.67;;;19.10;40.30;;;;;;8425151;28;20032;-51
2024/02/04 19:40:00;;;;;;;5.93;2.90;;;19.20;40.50;;;;;;8425203;28;20567;-53
2024/02/04 19:44:00;;;;;;;4.85;2.47;;;19.30;40.40;;;;;;8424553;28;20036;-50
2024/02/04 19:48:01;;;;;;;3.88;2.70;;;19.30;40.80;;;;;;8424263;28;20028;-53
2024/02/04 19:52:02;;;;;;;6.25;3.25;;;19.20;41.00;;;;;;8414757;28;20526;-51
2024/02/04 19:56:03;;;;;;;3.65;2.53;;;19.20;41.20;;;;;;8424128;28;20028;-52
2024/02/04 20:00:06;;;;;;;7.90;2.72;;;19.10;41.40;;;;;;8424059;28;20504;-52
2024/02/04 20:04:09;;;;;;;5.53;2.83;;;19.10;41.50;;;;;;8423731;28;20060;-49
2024/02/04 20:08:09;;;;;;;9.60;2.35;;;19.10;41.50;;;;;;8424382;28;20043;-52
2024/02/04 20:12:10;;;;;;;4.18;2.15;;;19.10;41.50;;;;;;8423602;28;20060;-53
2024/02/04 20:16:12;;;;;;;4.93;2.13;;;19.20;41.60;;;;;;8395759;28;20032;-51
2024/02/04 20:20:13;;;;;;;5.50;2.40;;;19.20;41.60;;;;;;8423368;28;20032;-50
2024/02/04 20:24:13;;;;;;;4.80;1.90;;;19.20;41.80;;;;;;8422994;28;20105;-51
2024/02/04 20:28:14;;;;;;;4.57;2.17;;;19.20;41.70;;;;;;8423478;28;20028;-52
2024/02/04 20:32:15;;;;;;;4.05;2.30;;;19.20;41.80;;;;;;8422996;28;20037;-51
2024/02/04 20:36:16;;;;;;;3.78;2.40;;;19.20;41.70;;;;;;8412868;28;20105;-51
2024/02/04 20:40:16;;;;;;;4.93;2.63;;;19.10;41.60;;;;;;8423226;28;20032;-51
2024/02/04 20:44:17;;;;;;;16.40;2.20;;;19.20;41.70;;;;;;8422619;28;20040;-50
2024/02/04 20:48:18;;;;;;;5.72;3.05;;;19.20;41.90;;;;;;8422889;28;20447;-50
2024/02/04 20:52:19;;;;;;;4.10;2.22;;;19.20;42.00;;;;;;8422780;28;20521;-49
2024/02/04 20:56:20;;;;;;;9.00;2.30;;;19.20;42.00;;;;;;8422595;28;20575;-51
2024/02/04 21:00:21;;;;;;;8.13;2.00;;;19.20;42.40;;;;;;8422604;28;20036;-50